Time;durP1;ratioP1;P1;durP2;ratioP2;P2;SDS_P1;SDS_P2;PMS_P1;PMS_P2;Temp;Humidity;BMP_temperature;BMP_pressure;BME280_temperature;BME280_humidity;BME280_pressure;Samples;Min_cycle;Max_cycle;Signal;HPM_P1;HPM_P2
2023/11/23 00:01:54;;;;;;;27.47;14.50;;;7.50;45.80;;;;;;5072447;28;20502;-70
2023/11/23 00:04:21;;;;;;;34.20;16.90;;;7.40;45.50;;;;;;5072379;28;20371;-71
2023/11/23 00:06:46;;;;;;;28.95;15.82;;;7.50;45.70;;;;;;5072124;28;20387;-71
2023/11/23 00:09:12;;;;;;;28.65;15.50;;;7.50;46.20;;;;;;5070868;28;20813;-70
2023/11/23 00:11:38;;;;;;;26.55;14.80;;;7.50;46.60;;;;;;5072140;28;20391;-70
2023/11/23 00:14:04;;;;;;;29.70;15.68;;;7.60;46.10;;;;;;5072181;28;20735;-70
2023/11/23 00:16:29;;;;;;;26.77;14.88;;;7.60;45.70;;;;;;5072565;28;20407;-69
2023/11/23 00:18:55;;;;;;;31.23;15.07;;;7.60;46.40;;;;;;5075280;28;20379;-71
2023/11/23 00:21:20;;;;;;;28.27;14.67;;;7.60;46.20;;;;;;5075306;28;20751;-71
2023/11/23 00:23:46;;;;;;;28.67;14.90;;;7.60;46.30;;;;;;5074788;28;20376;-70
2023/11/23 00:26:13;;;;;;;28.53;15.20;;;7.70;46.50;;;;;;5074577;28;20391;-69
2023/11/23 00:28:39;;;;;;;30.60;15.00;;;7.70;47.90;;;;;;5075505;28;20750;-70
2023/11/23 00:31:05;;;;;;;27.55;14.70;;;7.70;48.50;;;;;;5072239;28;20387;-71
2023/11/23 00:33:30;;;;;;;25.35;15.07;;;7.90;48.40;;;;;;5072689;28;20383;-71
2023/11/23 00:35:56;;;;;;;29.60;14.17;;;7.90;49.60;;;;;;5072684;28;20759;-71
2023/11/23 00:38:21;;;;;;;31.43;14.97;;;7.90;50.40;;;;;;5072845;28;20407;-71
2023/11/23 00:40:47;;;;;;;29.77;14.88;;;7.90;51.40;;;;;;5072709;28;20474;-71
2023/11/23 00:43:12;;;;;;;25.88;14.70;;;7.80;52.00;;;;;;5072617;28;20384;-71
2023/11/23 00:45:38;;;;;;;28.90;14.65;;;8.00;52.60;;;;;;5072047;28;20400;-71
2023/11/23 00:48:05;;;;;;;25.80;14.82;;;8.10;53.50;;;;;;5071318;28;20376;-70
2023/11/23 00:50:32;;;;;;;28.42;15.15;;;8.20;55.00;;;;;;5071363;28;20538;-70
2023/11/23 00:52:57;;;;;;;28.48;14.73;;;8.20;56.30;;;;;;5071193;28;20387;-71
2023/11/23 00:55:23;;;;;;;29.27;15.50;;;8.20;57.10;;;;;;5071755;28;20378;-69
2023/11/23 00:57:48;;;;;;;28.80;15.87;;;8.20;59.20;;;;;;5071252;28;20413;-69
2023/11/23 01:00:16;;;;;;;31.63;16.17;;;8.20;61.20;;;;;;5071149;28;20395;-69
2023/11/23 01:02:43;;;;;;;31.70;16.35;;;8.30;62.80;;;;;;5070893;28;20450;-70
2023/11/23 01:05:11;;;;;;;32.25;16.88;;;8.30;63.90;;;;;;5070821;28;20379;-70
2023/11/23 01:07:38;;;;;;;32.55;17.10;;;8.20;64.80;;;;;;5070677;28;20380;-69
2023/11/23 01:10:07;;;;;;;29.63;15.68;;;8.20;66.80;;;;;;5070546;28;20915;-70
2023/11/23 01:12:32;;;;;;;31.20;16.95;;;8.20;66.80;;;;;;5070829;28;20384;-70
2023/11/23 01:14:58;;;;;;;33.83;15.97;;;8.20;67.80;;;;;;5070725;28;20936;-70
2023/11/23 01:17:26;;;;;;;32.92;16.73;;;8.20;67.70;;;;;;5070307;28;21598;-70
2023/11/23 01:19:51;;;;;;;29.53;16.17;;;8.10;70.00;;;;;;5070446;28;20422;-70
2023/11/23 01:22:17;;;;;;;32.60;16.20;;;8.20;67.90;;;;;;5070521;28;20440;-70
2023/11/23 01:24:43;;;;;;;33.23;16.43;;;8.20;69.70;;;;;;5070585;28;20411;-70
2023/11/23 01:27:08;;;;;;;30.02;16.50;;;8.20;70.50;;;;;;5070117;28;21062;-70
2023/11/23 01:29:34;;;;;;;38.85;18.38;;;8.30;70.50;;;;;;5070425;28;20387;-70
2023/11/23 01:32:00;;;;;;;32.00;16.00;;;8.30;71.10;;;;;;5070452;28;20433;-71
2023/11/23 01:34:25;;;;;;;31.58;17.65;;;8.30;71.60;;;;;;5070471;28;20949;-70
2023/11/23 01:36:51;;;;;;;33.70;16.40;;;8.30;72.50;;;;;;5070328;28;20372;-72
2023/11/23 01:39:17;;;;;;;32.85;16.92;;;8.20;73.00;;;;;;5068703;28;20483;-69
2023/11/23 01:41:43;;;;;;;35.15;18.40;;;8.30;73.70;;;;;;5070980;28;20415;-70
2023/11/23 01:44:10;;;;;;;34.07;18.23;;;8.30;74.10;;;;;;5070223;28;20379;-68
2023/11/23 01:46:35;;;;;;;34.63;17.10;;;8.30;74.90;;;;;;5068489;28;20392;-69
2023/11/23 01:49:03;;;;;;;33.97;19.00;;;8.30;76.30;;;;;;5069962;28;20383;-69
2023/11/23 01:51:32;;;;;;;33.70;17.77;;;8.30;78.00;;;;;;5069888;28;20509;-69
2023/11/23 01:53:58;;;;;;;35.95;18.15;;;8.30;78.70;;;;;;5070081;28;20486;-68
2023/11/23 01:56:25;;;;;;;35.40;18.10;;;8.20;79.10;;;;;;5069813;28;20799;-68
2023/11/23 01:58:52;;;;;;;34.42;18.05;;;8.20;78.50;;;;;;5070133;28;20383;-69
2023/11/23 02:01:18;;;;;;;35.55;18.60;;;8.30;77.80;;;;;;5069547;28;20415;-69
2023/11/23 02:03:44;;;;;;;35.42;19.02;;;8.20;79.50;;;;;;5070266;28;20870;-70
2023/11/23 02:06:10;;;;;;;33.88;18.48;;;8.30;80.00;;;;;;5069920;28;20383;-69
2023/11/23 02:08:36;;;;;;;36.13;18.73;;;8.30;79.10;;;;;;5070081;28;20872;-69
2023/11/23 02:11:01;;;;;;;37.90;20.30;;;8.30;79.80;;;;;;5068394;28;20389;-68
2023/11/23 02:13:30;;;;;;;39.57;18.70;;;8.20;81.10;;;;;;5070034;28;20405;-69
2023/11/23 02:15:56;;;;;;;40.85;19.67;;;8.30;81.30;;;;;;5069939;28;20463;-69
2023/11/23 02:18:21;;;;;;;41.42;19.65;;;8.30;80.60;;;;;;5069815;28;20803;-68
2023/11/23 02:20:47;;;;;;;39.05;19.85;;;8.30;79.80;;;;;;5069513;28;20797;-69
2023/11/23 02:23:12;;;;;;;44.00;20.10;;;8.30;80.60;;;;;;5069683;28;20380;-68
2023/11/23 02:25:38;;;;;;;36.17;18.65;;;8.40;79.60;;;;;;5069772;28;20464;-69
2023/11/23 02:28:06;;;;;;;36.05;20.30;;;8.40;78.90;;;;;;5069728;28;20380;-68
2023/11/23 02:30:32;;;;;;;36.10;19.75;;;8.40;80.50;;;;;;5069453;28;20418;-68
2023/11/23 02:33:01;;;;;;;36.58;19.95;;;8.30;81.80;;;;;;5069646;28;20462;-69
2023/11/23 02:35:26;;;;;;;39.15;19.92;;;8.30;82.60;;;;;;5069625;28;20406;-69
2023/11/23 02:37:52;;;;;;;37.90;19.40;;;8.40;81.80;;;;;;5069739;28;20906;-69
2023/11/23 02:40:18;;;;;;;34.28;19.10;;;8.40;79.40;;;;;;5069580;28;20430;-68
2023/11/23 02:42:44;;;;;;;36.33;19.05;;;8.40;78.90;;;;;;5069668;28;20412;-69
2023/11/23 02:45:10;;;;;;;36.30;19.33;;;8.50;79.30;;;;;;5070383;28;20380;-68
2023/11/23 02:47:36;;;;;;;33.40;18.67;;;8.40;79.00;;;;;;5072962;28;20478;-68
2023/11/23 02:50:04;;;;;;;34.20;18.87;;;8.40;79.00;;;;;;5073016;28;20387;-68
2023/11/23 02:52:30;;;;;;;39.08;19.17;;;8.40;79.70;;;;;;5073409;28;20424;-69
2023/11/23 02:54:56;;;;;;;32.25;18.73;;;8.40;80.70;;;;;;5071878;28;20935;-69
2023/11/23 02:57:21;;;;;;;31.30;18.52;;;8.50;79.40;;;;;;5072975;28;20383;-68
2023/11/23 02:59:49;;;;;;;33.78;19.50;;;8.60;79.00;;;;;;5073216;28;20379;-69
2023/11/23 03:02:14;;;;;;;35.95;19.10;;;8.60;77.60;;;;;;5072918;28;20423;-68
2023/11/23 03:04:40;;;;;;;40.00;19.92;;;8.60;79.30;;;;;;5072989;28;20390;-68
2023/11/23 03:07:05;;;;;;;39.78;18.73;;;8.60;78.30;;;;;;5073234;28;20449;-69
2023/11/23 03:09:32;;;;;;;37.97;20.27;;;8.60;80.10;;;;;;5073215;28;20391;-69
2023/11/23 03:11:59;;;;;;;34.85;18.60;;;8.60;78.70;;;;;;5073777;28;20388;-69
2023/11/23 03:14:25;;;;;;;33.45;18.67;;;8.60;78.70;;;;;;5072905;28;20388;-68
2023/11/23 03:16:51;;;;;;;32.80;19.30;;;8.60;78.60;;;;;;5072898;28;20399;-69
2023/11/23 03:19:17;;;;;;;34.67;19.00;;;8.60;79.10;;;;;;5072779;28;20454;-70
2023/11/23 03:21:43;;;;;;;34.85;18.83;;;8.60;79.50;;;;;;5072542;28;20399;-69
2023/11/23 03:24:08;;;;;;;33.85;18.30;;;8.60;78.10;;;;;;5072412;28;20909;-69
2023/11/23 03:26:34;;;;;;;34.40;18.52;;;8.60;80.00;;;;;;5072168;28;20383;-69
2023/11/23 03:28:59;;;;;;;33.90;19.17;;;8.60;79.80;;;;;;5072210;28;20388;-69
2023/11/23 03:31:25;;;;;;;33.80;18.55;;;8.60;79.50;;;;;;5071938;28;20807;-69
2023/11/23 03:33:50;;;;;;;42.60;19.90;;;8.60;81.20;;;;;;5072115;28;20886;-69
2023/11/23 03:36:16;;;;;;;40.47;19.33;;;8.60;80.20;;;;;;5071961;28;20739;-69
2023/11/23 03:38:42;;;;;;;32.87;18.17;;;8.70;78.70;;;;;;5072299;28;20395;-69
2023/11/23 03:41:07;;;;;;;35.83;18.13;;;8.70;79.50;;;;;;5071967;28;20411;-69
2023/11/23 03:43:33;;;;;;;34.40;18.93;;;8.70;77.80;;;;;;5072353;28;20383;-69
2023/11/23 03:45:58;;;;;;;36.50;18.60;;;8.80;78.20;;;;;;5072219;28;20455;-69
2023/11/23 03:48:24;;;;;;;36.83;19.07;;;8.80;79.00;;;;;;5072068;28;20463;-69
2023/11/23 03:50:50;;;;;;;33.37;18.43;;;8.80;77.90;;;;;;5070612;28;20391;-69
2023/11/23 03:53:15;;;;;;;36.40;18.90;;;8.90;76.90;;;;;;5072221;28;20379;-68
2023/11/23 03:55:41;;;;;;;33.87;19.20;;;8.90;76.90;;;;;;5072054;28;20415;-70
2023/11/23 03:58:06;;;;;;;35.10;18.70;;;8.90;77.30;;;;;;5071073;28;20392;-69
2023/11/23 04:00:32;;;;;;;32.03;18.70;;;8.90;76.60;;;;;;5072124;28;20729;-69
2023/11/23 04:02:58;;;;;;;37.50;19.17;;;8.90;75.90;;;;;;5072436;28;20817;-69
2023/11/23 04:05:23;;;;;;;35.78;19.73;;;8.90;76.40;;;;;;5070907;28;20375;-69
2023/11/23 04:07:49;;;;;;;38.37;19.60;;;8.90;77.70;;;;;;5071969;28;20380;-69
2023/11/23 04:10:15;;;;;;;33.03;18.67;;;9.00;76.10;;;;;;5072483;28;20382;-69
2023/11/23 04:12:41;;;;;;;42.17;20.65;;;9.00;76.60;;;;;;5071743;28;20441;-69
2023/11/23 04:15:08;;;;;;;34.42;18.45;;;9.00;76.30;;;;;;5071388;28;20407;-69
2023/11/23 04:17:33;;;;;;;37.22;19.60;;;9.00;77.20;;;;;;5071936;28;20388;-69
2023/11/23 04:20:00;;;;;;;33.85;19.30;;;9.00;77.80;;;;;;5071633;28;20403;-70
2023/11/23 04:22:25;;;;;;;35.25;19.92;;;9.00;77.00;;;;;;5071529;28;20720;-69
2023/11/23 04:24:51;;;;;;;35.35;18.88;;;9.00;77.40;;;;;;5071220;28;20386;-70
2023/11/23 04:27:16;;;;;;;36.42;19.67;;;9.10;76.80;;;;;;5072443;28;20383;-69
2023/11/23 04:29:42;;;;;;;36.42;19.77;;;9.00;77.20;;;;;;5071371;28;20386;-69
2023/11/23 04:32:10;;;;;;;41.58;19.55;;;9.00;78.00;;;;;;5070975;28;20388;-69
2023/11/23 04:34:36;;;;;;;37.50;20.50;;;9.10;77.80;;;;;;5071041;28;20391;-69
2023/11/23 04:37:03;;;;;;;41.30;21.15;;;9.10;77.50;;;;;;5070821;28;20395;-69
2023/11/23 04:39:28;;;;;;;37.63;19.88;;;9.10;79.30;;;;;;5070399;28;20411;-69
2023/11/23 04:41:54;;;;;;;42.33;21.20;;;9.10;79.00;;;;;;5070727;28;20447;-69
2023/11/23 04:44:21;;;;;;;37.70;20.40;;;9.10;78.00;;;;;;5070700;28;20427;-69
2023/11/23 04:46:46;;;;;;;42.30;20.48;;;9.10;78.10;;;;;;5070723;28;20461;-69
2023/11/23 04:49:12;;;;;;;33.70;19.40;;;9.20;78.00;;;;;;5070548;28;20882;-69
2023/11/23 04:51:38;;;;;;;36.35;20.40;;;9.20;77.70;;;;;;5070624;28;20880;-69
2023/11/23 04:54:04;;;;;;;43.90;21.00;;;9.30;77.90;;;;;;5070724;28;20467;-69
2023/11/23 04:56:30;;;;;;;35.67;20.23;;;9.30;78.10;;;;;;5070409;28;20471;-69
2023/11/23 04:58:56;;;;;;;40.38;20.98;;;9.20;77.80;;;;;;5069314;28;20791;-69
2023/11/23 05:01:22;;;;;;;43.50;21.73;;;9.20;78.30;;;;;;5070254;28;20495;-69
2023/11/23 05:03:48;;;;;;;41.00;22.23;;;9.30;79.10;;;;;;5070692;28;20788;-69
2023/11/23 05:06:15;;;;;;;42.40;22.10;;;9.20;79.70;;;;;;5070172;28;20402;-69
2023/11/23 05:08:41;;;;;;;38.75;22.13;;;9.20;79.90;;;;;;5069891;28;20380;-69
2023/11/23 05:11:06;;;;;;;42.42;22.50;;;9.20;81.10;;;;;;5070263;28;20395;-68
2023/11/23 05:13:32;;;;;;;40.65;21.98;;;9.20;80.40;;;;;;5069058;28;20396;-68
2023/11/23 05:15:58;;;;;;;45.10;21.70;;;9.20;80.30;;;;;;5070088;28;20498;-68
2023/11/23 05:18:23;;;;;;;47.25;23.48;;;9.30;81.10;;;;;;5070558;28;20428;-69
2023/11/23 05:20:49;;;;;;;39.50;22.70;;;9.30;80.90;;;;;;5071455;28;20801;-69
2023/11/23 05:23:15;;;;;;;41.70;21.98;;;9.30;81.10;;;;;;5071950;28;20907;-69
2023/11/23 05:25:40;;;;;;;47.05;24.15;;;9.30;80.10;;;;;;5071909;28;20393;-70
2023/11/23 05:28:06;;;;;;;42.90;22.48;;;9.30;81.20;;;;;;5071761;28;20383;-69
2023/11/23 05:30:32;;;;;;;41.60;22.45;;;9.40;80.50;;;;;;5070446;28;20400;-69
2023/11/23 05:33:00;;;;;;;43.58;22.98;;;9.40;79.60;;;;;;5070118;28;20384;-69
2023/11/23 05:35:26;;;;;;;41.37;23.00;;;9.40;80.50;;;;;;5069862;28;20523;-70
2023/11/23 05:37:52;;;;;;;41.25;23.25;;;9.40;80.30;;;;;;5070018;28;20409;-69
2023/11/23 05:40:17;;;;;;;42.90;24.13;;;9.40;80.40;;;;;;5069809;28;20723;-69
2023/11/23 05:42:43;;;;;;;44.25;23.88;;;9.50;80.90;;;;;;5068514;28;20423;-69
2023/11/23 05:45:10;;;;;;;42.07;23.60;;;9.50;80.10;;;;;;5070034;28;20387;-69
2023/11/23 05:47:36;;;;;;;42.63;24.17;;;9.50;79.90;;;;;;5070622;28;20414;-71
2023/11/23 05:50:03;;;;;;;46.60;24.60;;;9.50;79.30;;;;;;5070135;28;20415;-69
2023/11/23 05:52:29;;;;;;;43.28;24.02;;;9.50;79.60;;;;;;5070197;28;20380;-69
2023/11/23 05:54:55;;;;;;;44.78;24.45;;;9.60;79.30;;;;;;5069866;28;20388;-69
2023/11/23 05:57:21;;;;;;;46.28;23.98;;;9.60;80.60;;;;;;5069928;28;20394;-70
2023/11/23 05:59:47;;;;;;;48.30;25.87;;;9.60;80.40;;;;;;5069719;28;20479;-70
2023/11/23 06:02:12;;;;;;;41.97;24.20;;;9.70;79.60;;;;;;5069605;28;20400;-70
2023/11/23 06:04:39;;;;;;;44.47;24.20;;;9.60;80.20;;;;;;5069570;28;20379;-70
2023/11/23 06:07:10;;;;;;;45.33;24.37;;;9.60;80.50;;;;;;5069658;28;20870;-70
2023/11/23 06:09:36;;;;;;;43.22;24.02;;;9.60;79.90;;;;;;5069100;28;20382;-70
2023/11/23 06:12:01;;;;;;;40.72;24.30;;;9.60;81.00;;;;;;5069358;28;20388;-70
2023/11/23 06:14:27;;;;;;;46.83;24.70;;;9.70;79.80;;;;;;5069355;28;20395;-70
2023/11/23 06:16:52;;;;;;;44.03;24.07;;;9.70;79.20;;;;;;5069836;28;20383;-70
2023/11/23 06:19:18;;;;;;;45.60;25.27;;;9.70;79.80;;;;;;5069343;28;20901;-70
2023/11/23 06:21:45;;;;;;;48.00;24.63;;;9.70;81.20;;;;;;5073144;28;20920;-70
2023/11/23 06:24:10;;;;;;;41.33;24.40;;;9.80;79.60;;;;;;5074013;28;20434;-70
2023/11/23 06:26:36;;;;;;;46.10;25.27;;;9.80;78.90;;;;;;5073352;28;20376;-70
2023/11/23 06:29:01;;;;;;;43.33;24.70;;;9.80;78.60;;;;;;5073577;28;20797;-69
2023/11/23 06:31:27;;;;;;;44.08;24.48;;;9.80;80.10;;;;;;5072223;28;20862;-69
2023/11/23 06:33:53;;;;;;;45.40;25.08;;;9.80;80.10;;;;;;5074373;28;20387;-68
2023/11/23 06:36:19;;;;;;;43.28;24.38;;;9.90;79.50;;;;;;5073059;28;20433;-68
2023/11/23 06:38:44;;;;;;;44.53;25.33;;;9.80;79.30;;;;;;5072449;28;20937;-70
2023/11/23 06:41:20;;;;;;;42.67;24.77;;;9.90;79.40;;;;;;5072602;28;20435;-69
2023/11/23 06:43:52;;;;;;;46.73;24.63;;;9.90;78.80;;;;;;5072987;28;20422;-70
2023/11/23 06:46:19;;;;;;;44.78;25.08;;;9.90;79.40;;;;;;5072470;28;20807;-69
2023/11/23 06:48:45;;;;;;;46.08;24.65;;;10.00;78.30;;;;;;5072966;28;20380;-68
2023/11/23 06:51:11;;;;;;;40.00;24.40;;;10.00;77.90;;;;;;5072745;28;20954;-69
2023/11/23 06:53:44;;;;;;;43.33;23.77;;;10.00;77.80;;;;;;5072805;28;20380;-70
2023/11/23 06:56:12;;;;;;;41.53;24.55;;;10.00;78.80;;;;;;5072614;28;20391;-70
2023/11/23 06:58:39;;;;;;;46.03;25.40;;;9.90;79.00;;;;;;5072656;28;20399;-69
2023/11/23 07:01:06;;;;;;;45.25;24.83;;;9.90;80.90;;;;;;5072141;28;20509;-69
2023/11/23 07:03:31;;;;;;;41.50;23.92;;;9.90;80.80;;;;;;5072444;28;20376;-68
2023/11/23 07:05:57;;;;;;;46.53;24.90;;;10.00;80.10;;;;;;5072931;28;20463;-69
2023/11/23 07:08:22;;;;;;;46.80;23.73;;;10.00;79.60;;;;;;5072355;28;20378;-68
2023/11/23 07:10:48;;;;;;;40.83;23.80;;;10.00;80.30;;;;;;5071914;28;20388;-69
2023/11/23 07:13:13;;;;;;;43.37;24.43;;;10.10;79.20;;;;;;5072500;28;20399;-69
2023/11/23 07:15:41;;;;;;;46.58;23.98;;;10.10;78.10;;;;;;5072070;28;20415;-68
2023/11/23 07:18:07;;;;;;;46.15;24.30;;;10.10;77.50;;;;;;5072412;28;20391;-69
2023/11/23 07:20:32;;;;;;;37.40;22.42;;;10.10;78.40;;;;;;5072265;28;20395;-70
2023/11/23 07:22:58;;;;;;;40.25;23.25;;;10.10;78.60;;;;;;5072099;28;20478;-69
2023/11/23 07:25:23;;;;;;;45.70;22.85;;;10.20;77.20;;;;;;5072206;28;20391;-69
2023/11/23 07:27:49;;;;;;;40.92;22.90;;;10.20;77.40;;;;;;5072333;28;20429;-70
2023/11/23 07:30:15;;;;;;;45.20;22.33;;;10.30;76.50;;;;;;5072134;28;20747;-70
2023/11/23 07:32:40;;;;;;;43.55;23.30;;;10.20;76.50;;;;;;5071853;28;20384;-69
2023/11/23 07:35:07;;;;;;;46.43;24.00;;;10.20;77.00;;;;;;5071544;28;20776;-69
2023/11/23 07:37:35;;;;;;;38.30;23.08;;;10.20;77.50;;;;;;5071757;28;20383;-69
2023/11/23 07:40:12;;;;;;;43.55;23.77;;;10.20;79.20;;;;;;5071562;28;20383;-69
2023/11/23 07:42:39;;;;;;;42.97;23.20;;;10.30;76.90;;;;;;5071368;28;20415;-70
2023/11/23 07:45:05;;;;;;;45.10;23.83;;;10.30;75.60;;;;;;5071275;28;20485;-70
2023/11/23 07:47:30;;;;;;;40.87;23.47;;;10.30;76.90;;;;;;5071169;28;20419;-70
2023/11/23 07:49:57;;;;;;;36.83;22.20;;;10.40;76.50;;;;;;5071489;28;20388;-70
2023/11/23 07:52:23;;;;;;;41.28;22.50;;;10.40;75.10;;;;;;5071637;28;20384;-69
2023/11/23 07:54:49;;;;;;;42.78;22.83;;;10.40;76.50;;;;;;5071682;28;20444;-71
2023/11/23 07:57:15;;;;;;;43.58;24.17;;;10.40;76.00;;;;;;5072331;28;20380;-69
2023/11/23 07:59:43;;;;;;;43.23;22.53;;;10.30;76.20;;;;;;5072019;28;20428;-69
2023/11/23 08:02:09;;;;;;;39.22;22.50;;;10.40;77.40;;;;;;5071624;28;20406;-69
2023/11/23 08:04:34;;;;;;;37.63;21.75;;;10.40;76.20;;;;;;5071399;28;20384;-69
2023/11/23 08:07:00;;;;;;;37.58;22.23;;;10.40;75.50;;;;;;5071460;28;20391;-69
2023/11/23 08:09:27;;;;;;;41.80;23.15;;;10.40;76.30;;;;;;5069862;28;20392;-69
2023/11/23 08:11:53;;;;;;;37.53;21.83;;;10.50;75.10;;;;;;5071679;28;20390;-69
2023/11/23 08:14:20;;;;;;;35.93;22.07;;;10.50;75.10;;;;;;5071729;28;20441;-68
2023/11/23 08:16:45;;;;;;;39.55;22.50;;;10.60;74.60;;;;;;5099156;22;20437;-73
2023/11/23 08:19:14;;;;;;;41.43;21.97;;;10.60;73.70;;;;;;5092470;28;20370;-73
2023/11/23 08:21:40;;;;;;;37.50;21.80;;;10.60;74.10;;;;;;5092182;28;20401;-72
2023/11/23 08:24:07;;;;;;;41.97;22.40;;;10.60;73.90;;;;;;5092859;28;20410;-72
2023/11/23 08:26:32;;;;;;;37.65;22.40;;;10.60;73.70;;;;;;5090543;28;20469;-72
2023/11/23 08:28:58;;;;;;;42.90;22.93;;;10.70;73.80;;;;;;5092301;28;20466;-71
2023/11/23 08:31:28;;;;;;;40.10;21.50;;;10.80;72.50;;;;;;5095407;28;20410;-71
2023/11/23 08:33:57;;;;;;;40.38;22.45;;;10.70;73.40;;;;;;5093396;28;20524;-74
2023/11/23 08:36:23;;;;;;;38.25;21.80;;;10.70;73.20;;;;;;5095063;28;20915;-72
2023/11/23 08:38:50;;;;;;;35.90;22.10;;;10.70;73.60;;;;;;5097465;28;20374;-72
2023/11/23 08:41:18;;;;;;;36.50;21.30;;;10.70;73.00;;;;;;5081664;28;20800;-71
2023/11/23 08:43:45;;;;;;;35.78;21.00;;;10.80;72.20;;;;;;5089460;28;20972;-71
2023/11/23 08:46:11;;;;;;;35.22;22.17;;;10.80;72.20;;;;;;5078386;28;20387;-71
2023/11/23 08:48:37;;;;;;;38.42;21.80;;;10.80;71.90;;;;;;5088658;28;20390;-70
2023/11/23 08:51:03;;;;;;;38.50;21.63;;;10.80;72.20;;;;;;5083289;28;20563;-73
2023/11/23 08:53:29;;;;;;;33.20;20.60;;;10.90;72.50;;;;;;5088998;28;20380;-72
2023/11/23 08:55:55;;;;;;;39.60;22.50;;;10.90;71.60;;;;;;5085674;28;20473;-71
2023/11/23 08:58:21;;;;;;;37.67;22.10;;;10.90;71.20;;;;;;5089116;28;20860;-72
2023/11/23 09:00:46;;;;;;;37.10;21.50;;;10.90;71.50;;;;;;5087596;28;20485;-73
2023/11/23 09:03:13;;;;;;;36.13;21.20;;;11.00;71.00;;;;;;5086685;28;20844;-71
2023/11/23 09:05:39;;;;;;;44.22;21.90;;;11.00;70.60;;;;;;5088426;28;20388;-72
2023/11/23 09:08:06;;;;;;;38.33;19.80;;;11.00;70.60;;;;;;5088704;28;20465;-72
2023/11/23 09:10:35;;;;;;;38.60;22.13;;;11.00;69.80;;;;;;5088600;28;20378;-72
2023/11/23 09:13:02;;;;;;;36.60;21.60;;;11.00;70.70;;;;;;5088414;28;20388;-72
2023/11/23 09:15:31;;;;;;;39.42;21.60;;;11.00;71.10;;;;;;5077549;28;20558;-72
2023/11/23 09:17:56;;;;;;;34.13;20.90;;;11.00;70.30;;;;;;5090505;28;20490;-74
2023/11/23 09:20:22;;;;;;;35.78;20.65;;;11.10;70.80;;;;;;5083048;28;20423;-72
2023/11/23 09:22:48;;;;;;;33.78;20.30;;;11.20;70.10;;;;;;5068941;28;20909;-71
2023/11/23 09:25:14;;;;;;;33.90;19.60;;;11.20;69.90;;;;;;5084865;28;20465;-72
2023/11/23 09:27:39;;;;;;;36.45;20.77;;;11.20;69.10;;;;;;5089313;28;20819;-72
2023/11/23 09:30:06;;;;;;;33.43;19.90;;;11.20;69.50;;;;;;5092179;28;20382;-73
2023/11/23 09:32:33;;;;;;;36.05;19.40;;;11.20;69.10;;;;;;5083215;28;20385;-72
2023/11/23 09:34:59;;;;;;;34.13;19.80;;;11.30;69.30;;;;;;5090214;28;21048;-71
2023/11/23 09:37:26;;;;;;;34.55;19.10;;;11.20;68.80;;;;;;5091306;28;20412;-71
2023/11/23 09:39:51;;;;;;;33.28;19.05;;;11.20;69.10;;;;;;5090956;28;20390;-71
2023/11/23 09:42:18;;;;;;;31.05;19.20;;;11.20;68.90;;;;;;5087414;28;20755;-73
2023/11/23 09:44:45;;;;;;;32.28;19.30;;;11.20;70.20;;;;;;5090926;28;20717;-71
2023/11/23 09:47:13;;;;;;;33.95;19.88;;;11.20;69.90;;;;;;5090996;28;20384;-71
2023/11/23 09:49:40;;;;;;;38.95;20.48;;;11.20;69.60;;;;;;5090634;28;20378;-71
2023/11/23 09:52:06;;;;;;;34.10;19.73;;;11.20;69.10;;;;;;5090284;28;20377;-72
2023/11/23 09:54:33;;;;;;;34.20;18.85;;;11.20;69.50;;;;;;5092130;28;20472;-70
2023/11/23 09:56:59;;;;;;;31.80;19.75;;;11.20;69.60;;;;;;5094657;28;20855;-71
2023/11/23 09:59:26;;;;;;;35.25;19.42;;;11.30;68.90;;;;;;5094663;28;20386;-72
2023/11/23 10:01:58;;;;;;;33.17;18.70;;;11.20;69.10;;;;;;5093385;28;20394;-71
2023/11/23 10:04:24;;;;;;;32.55;19.90;;;11.20;69.60;;;;;;5093206;28;20378;-72
2023/11/23 10:06:50;;;;;;;36.58;19.92;;;11.30;69.10;;;;;;5094316;28;20373;-71
2023/11/23 10:09:16;;;;;;;31.20;18.77;;;11.30;69.30;;;;;;5094055;28;20924;-71
2023/11/23 10:11:42;;;;;;;31.87;19.20;;;11.30;68.60;;;;;;5092732;28;20377;-71
2023/11/23 10:14:08;;;;;;;32.72;19.27;;;11.30;69.40;;;;;;5094233;28;20385;-72
2023/11/23 10:16:35;;;;;;;31.83;18.48;;;11.30;70.00;;;;;;5094099;28;20895;-72
2023/11/23 10:19:00;;;;;;;31.58;18.85;;;11.30;69.20;;;;;;5094786;28;20816;-72
2023/11/23 10:21:28;;;;;;;29.45;17.45;;;11.30;68.80;;;;;;5093897;28;20409;-71
2023/11/23 10:23:54;;;;;;;31.00;17.73;;;11.30;69.00;;;;;;5093966;28;20559;-72
2023/11/23 10:26:20;;;;;;;30.40;17.08;;;11.30;68.70;;;;;;5093795;28;20370;-72
2023/11/23 10:28:46;;;;;;;34.60;17.50;;;11.30;69.00;;;;;;5093988;28;20382;-71
2023/11/23 10:31:12;;;;;;;28.27;17.27;;;11.30;69.30;;;;;;5093913;28;20868;-71
2023/11/23 10:33:37;;;;;;;27.87;16.70;;;11.40;69.40;;;;;;5093496;28;20670;-71
2023/11/23 10:36:05;;;;;;;30.43;17.50;;;11.40;68.80;;;;;;5093992;28;20888;-70
2023/11/23 10:38:38;;;;;;;27.17;16.17;;;11.40;69.00;;;;;;5092776;28;20386;-71
2023/11/23 10:41:06;;;;;;;27.38;14.95;;;11.50;67.80;;;;;;5093451;28;20436;-72
2023/11/23 10:43:36;;;;;;;31.20;15.27;;;11.50;67.90;;;;;;5096040;28;20756;-72
2023/11/23 10:46:05;;;;;;;27.10;14.57;;;11.40;67.70;;;;;;5094405;28;20382;-71
2023/11/23 10:48:32;;;;;;;32.58;16.48;;;11.50;68.10;;;;;;5096778;28;20962;-72
2023/11/23 10:51:01;;;;;;;30.20;15.55;;;11.40;68.60;;;;;;5095856;28;20381;-71
2023/11/23 10:53:28;;;;;;;26.27;15.80;;;11.50;68.00;;;;;;5094233;28;20385;-72
2023/11/23 10:55:57;;;;;;;23.67;14.80;;;11.50;68.10;;;;;;5092356;28;20509;-72
2023/11/23 10:58:23;;;;;;;23.92;14.38;;;11.60;68.00;;;;;;5093923;28;20374;-71
2023/11/23 11:00:51;;;;;;;23.70;13.75;;;11.70;66.40;;;;;;5094068;28;20500;-70
2023/11/23 11:03:17;;;;;;;25.25;13.77;;;11.70;66.60;;;;;;5093206;28;20409;-73
2023/11/23 11:05:47;;;;;;;28.27;14.02;;;11.70;66.40;;;;;;5092903;28;20435;-72
2023/11/23 11:08:18;;;;;;;19.25;13.18;;;11.70;66.90;;;;;;5093305;28;20664;-73
2023/11/23 11:10:50;;;;;;;24.00;14.00;;;11.80;65.90;;;;;;5093763;28;20376;-72
2023/11/23 11:13:18;;;;;;;22.95;13.65;;;11.80;65.50;;;;;;5092832;28;20389;-71
2023/11/23 11:16:06;;;;;;;24.48;13.90;;;11.90;64.40;;;;;;5096120;28;20447;-72
2023/11/23 11:18:35;;;;;;;26.50;13.80;;;12.00;64.10;;;;;;5093451;28;20468;-71
2023/11/23 11:21:11;;;;;;;19.60;12.93;;;12.10;63.10;;;;;;5095586;28;20386;-73
2023/11/23 11:23:44;;;;;;;27.13;12.18;;;12.10;62.50;;;;;;5095214;28;20865;-72
2023/11/23 11:26:27;;;;;;;21.83;12.25;;;12.20;62.30;;;;;;5093634;28;20370;-72
2023/11/23 11:28:58;;;;;;;19.20;11.35;;;12.20;61.20;;;;;;5091651;28;20374;-72
2023/11/23 11:31:31;;;;;;;22.42;11.68;;;12.30;61.10;;;;;;5092579;28;20389;-72
2023/11/23 11:33:57;;;;;;;18.30;10.10;;;12.40;60.60;;;;;;5094264;28;20753;-71
2023/11/23 11:36:27;;;;;;;19.73;9.87;;;12.40;59.20;;;;;;5093367;28;20429;-70
2023/11/23 11:39:01;;;;;;;14.20;9.00;;;12.30;60.00;;;;;;5092967;28;20786;-73
2023/11/23 11:41:29;;;;;;;18.17;10.63;;;12.20;60.10;;;;;;5091243;28;20451;-73
2023/11/23 11:43:59;;;;;;;18.30;10.65;;;12.20;61.10;;;;;;5092799;28;20406;-73
2023/11/23 11:46:24;;;;;;;22.25;11.15;;;12.20;61.50;;;;;;5092087;28;20428;-72
2023/11/23 11:48:50;;;;;;;15.43;9.15;;;12.20;61.80;;;;;;5092335;28;20817;-73
2023/11/23 11:51:16;;;;;;;16.65;9.98;;;12.20;61.90;;;;;;5083851;28;20397;-73
2023/11/23 11:53:44;;;;;;;17.30;10.00;;;12.20;62.60;;;;;;5069934;28;20404;-73
2023/11/23 11:56:11;;;;;;;16.98;10.02;;;12.20;61.90;;;;;;5075236;28;20451;-72
2023/11/23 11:58:38;;;;;;;19.02;9.82;;;12.20;62.70;;;;;;5090100;28;20403;-72
2023/11/23 12:01:06;;;;;;;17.15;10.20;;;12.20;63.00;;;;;;5090928;28;20390;-73
2023/11/23 12:03:32;;;;;;;14.93;9.40;;;12.30;61.70;;;;;;5089859;28;20378;-73
2023/11/23 12:05:57;;;;;;;23.15;9.77;;;12.30;61.10;;;;;;5089850;28;20442;-72
2023/11/23 12:08:31;;;;;;;20.45;9.18;;;12.30;60.90;;;;;;5089873;28;20385;-73
2023/11/23 12:10:56;;;;;;;18.40;9.68;;;12.30;61.50;;;;;;5089718;28;20397;-72
2023/11/23 12:13:25;;;;;;;16.30;9.43;;;12.30;61.50;;;;;;5086212;28;20390;-71
2023/11/23 12:15:54;;;;;;;15.70;8.82;;;12.30;60.40;;;;;;5087209;28;20405;-72
2023/11/23 12:18:30;;;;;;;19.60;9.27;;;12.30;61.30;;;;;;5090159;28;20394;-72
2023/11/23 12:20:55;;;;;;;18.85;8.50;;;12.40;60.70;;;;;;5088602;28;20394;-73
2023/11/23 12:23:21;;;;;;;18.33;8.20;;;12.30;60.70;;;;;;5081379;28;20413;-72
2023/11/23 12:25:51;;;;;;;16.33;8.60;;;12.40;60.40;;;;;;5091473;28;20454;-72
2023/11/23 12:28:26;;;;;;;14.40;8.27;;;12.40;60.30;;;;;;5092147;28;20394;-73
2023/11/23 12:30:52;;;;;;;14.48;8.40;;;12.30;60.90;;;;;;5091044;28;20865;-72